Lewisville, Texas
Current Conditions -  °F | °C
As of 1:53 AM on Friday 24 Oct 2014 (Local Time) from KDFW Reporting Station
Clear Clear  
Wind Chill: 63°   Ceiling: Unl
Heat Index: 63°   Visibility: 10mi
Dew Point: 55°   Wind: 6mph
Humidity: 75%   Direction: 160°SSE
Pressure: 30.11"   Gusts: NA
Location:  33.05°N, 96.99°W
Report Text: KDFW 240653Z 16005KT 10SM CLR 17/13 A3011 RMK AO2 SLP189 T01720128
Loading
Personal Weather Stations






























Interactive Weather Map
Tropical Storm Tracking
New forecast layout! Learn more

10-Day Weather Forecast

Advertisements
Track Severe Weather on mobile